VLG79RQ LFPO-EGLL
Flight info
| Callsign | VLG79RQ |
|---|---|
| Flight time | N/A |
| Altitude | 22000 |
| Route | OPALE DCT KESAX DCT DIMAL DCT ALESO |
| Aircraft | A320/M-SDE3FGHIRWY/LB1 |
Departure
| Time | 2026-05-03 23:04 |
|---|---|
| Airport | Paris-Orly Airport (LFPO) |
Arrival
| Time | N/A |
|---|---|
| Airport | London Heathrow Airport (EGLL) |
| Time | Latitude | Longitude | Altitude | Speed | Heading |
|---|---|---|---|---|---|
| 2026-05-03 22:36 | 48.72573 | 2.36131 | 292 ft | 0 kts | 348° |
| 2026-05-03 22:55 | 48.72550 | 2.36138 | 296 ft | 4 kts | 348° |
| 2026-05-03 22:56 | 48.72529 | 2.36145 | 295 ft | 4 kts | 344° |
| 2026-05-03 22:56 | 48.72507 | 2.36163 | 293 ft | 4 kts | 300° |
| 2026-05-03 22:56 | 48.72501 | 2.36199 | 295 ft | 4 kts | 257° |
| 2026-05-03 22:56 | 48.72506 | 2.36228 | 294 ft | 0 kts | 254° |
| 2026-05-03 22:59 | 48.72506 | 2.36227 | 294 ft | 0 kts | 254° |
| 2026-05-03 22:59 | 48.72501 | 2.36199 | 295 ft | 6 kts | 254° |
| 2026-05-03 22:59 | 48.72485 | 2.36113 | 294 ft | 10 kts | 254° |
| 2026-05-03 23:00 | 48.72467 | 2.35984 | 289 ft | 15 kts | 268° |
| 2026-05-03 23:00 | 48.72479 | 2.35807 | 289 ft | 18 kts | 276° |
| 2026-05-03 23:00 | 48.72552 | 2.35686 | 292 ft | 11 kts | 343° |
| 2026-05-03 23:00 | 48.72615 | 2.35660 | 290 ft | 11 kts | 344° |
| 2026-05-03 23:01 | 48.72693 | 2.35626 | 293 ft | 13 kts | 344° |
| 2026-05-03 23:01 | 48.72795 | 2.35583 | 291 ft | 17 kts | 344° |
| 2026-05-03 23:01 | 48.72918 | 2.35531 | 294 ft | 20 kts | 345° |
| 2026-05-03 23:01 | 48.73038 | 2.35609 | 294 ft | 21 kts | 54° |
| 2026-05-03 23:02 | 48.73123 | 2.35810 | 291 ft | 24 kts | 58° |
| 2026-05-03 23:02 | 48.73196 | 2.35979 | 293 ft | 18 kts | 56° |
| 2026-05-03 23:02 | 48.73275 | 2.36104 | 290 ft | 10 kts | 13° |
| 2026-05-03 23:02 | 48.73319 | 2.36080 | 293 ft | 5 kts | 332° |
| 2026-05-03 23:03 | 48.73361 | 2.36079 | 290 ft | 8 kts | 19° |
| 2026-05-03 23:03 | 48.73423 | 2.36107 | 294 ft | 10 kts | 7° |
| 2026-05-03 23:03 | 48.73494 | 2.36071 | 293 ft | 12 kts | 331° |
| 2026-05-03 23:03 | 48.73522 | 2.35994 | 293 ft | 10 kts | 238° |
| 2026-05-03 23:04 | 48.73459 | 2.35820 | 292 ft | 46 kts | 241° |
| 2026-05-03 23:04 | 48.73178 | 2.35029 | 294 ft | 117 kts | 242° |
| 2026-05-03 23:04 | 48.72709 | 2.33730 | 334 ft | 160 kts | 238° |
| 2026-05-03 23:04 | 48.72173 | 2.32255 | 1019 ft | 159 kts | 241° |
| 2026-05-03 23:05 | 48.71630 | 2.30813 | 1736 ft | 158 kts | 237° |
| 2026-05-03 23:05 | 48.71020 | 2.29369 | 2235 ft | 171 kts | 237° |
| 2026-05-03 23:05 | 48.70336 | 2.27764 | 2639 ft | 191 kts | 236° |
| 2026-05-03 23:05 | 48.69559 | 2.25962 | 3061 ft | 215 kts | 237° |
| 2026-05-03 23:06 | 48.68694 | 2.23952 | 3536 ft | 240 kts | 236° |
| 2026-05-03 23:06 | 48.67752 | 2.21766 | 4282 ft | 252 kts | 237° |
| 2026-05-03 23:06 | 48.66794 | 2.19542 | 5251 ft | 256 kts | 237° |
| 2026-05-03 23:06 | 48.65894 | 2.17188 | 6247 ft | 259 kts | 242° |
| 2026-05-03 23:07 | 48.65084 | 2.14724 | 7181 ft | 262 kts | 244° |
| 2026-05-03 23:07 | 48.64315 | 2.12239 | 8095 ft | 265 kts | 244° |
| 2026-05-03 23:07 | 48.63531 | 2.09677 | 9042 ft | 269 kts | 244° |
| 2026-05-03 23:07 | 48.62929 | 2.06976 | 9921 ft | 275 kts | 262° |
| 2026-05-03 23:08 | 48.63162 | 2.04077 | 10532 ft | 294 kts | 287° |
| 2026-05-03 23:08 | 48.64246 | 2.01287 | 10852 ft | 319 kts | 302° |
| 2026-05-03 23:08 | 48.65530 | 1.98533 | 11491 ft | 326 kts | 302° |
| 2026-05-03 23:08 | 48.66853 | 1.95707 | 12257 ft | 331 kts | 302° |
| 2026-05-03 23:09 | 48.68189 | 1.92841 | 13017 ft | 334 kts | 301° |
| 2026-05-03 23:09 | 48.69534 | 1.89928 | 13774 ft | 338 kts | 301° |
| 2026-05-03 23:09 | 48.70882 | 1.86983 | 14451 ft | 341 kts | 300° |
| 2026-05-03 23:09 | 48.72229 | 1.84021 | 15127 ft | 344 kts | 300° |
| 2026-05-03 23:10 | 48.73605 | 1.81073 | 15790 ft | 349 kts | 305° |
| 2026-05-03 23:10 | 48.75437 | 1.78582 | 16418 ft | 361 kts | 323° |
| 2026-05-03 23:10 | 48.77784 | 1.77048 | 17068 ft | 374 kts | 342° |
| 2026-05-03 23:10 | 48.80390 | 1.76735 | 17700 ft | 387 kts | 2° |
| 2026-05-03 23:11 | 48.83031 | 1.77769 | 18307 ft | 396 kts | 19° |
| 2026-05-03 23:11 | 48.85616 | 1.79343 | 18778 ft | 401 kts | 20° |
| 2026-05-03 23:11 | 48.88183 | 1.80930 | 18930 ft | 403 kts | 20° |
| 2026-05-03 23:11 | 48.90789 | 1.82550 | 18969 ft | 404 kts | 20° |
| 2026-05-03 23:12 | 48.93419 | 1.84179 | 19349 ft | 408 kts | 20° |
| 2026-05-03 23:12 | 48.96035 | 1.85791 | 19931 ft | 411 kts | 20° |
| 2026-05-03 23:12 | 48.98714 | 1.87439 | 20469 ft | 416 kts | 20° |
| 2026-05-03 23:12 | 49.01413 | 1.89096 | 20971 ft | 420 kts | 20° |
| 2026-05-03 23:13 | 49.04150 | 1.90772 | 21467 ft | 425 kts | 20° |
| 2026-05-03 23:13 | 49.06884 | 1.92450 | 21883 ft | 429 kts | 20° |
| 2026-05-03 23:13 | 49.09645 | 1.94153 | 21964 ft | 420 kts | 20° |
| 2026-05-03 23:13 | 49.12304 | 1.95805 | 21978 ft | 412 kts | 20° |
| 2026-05-03 23:14 | 49.14956 | 1.97455 | 21974 ft | 410 kts | 20° |
| 2026-05-03 23:14 | 49.17613 | 1.99102 | 21973 ft | 410 kts | 20° |
| 2026-05-03 23:14 | 49.20224 | 2.00719 | 21974 ft | 409 kts | 20° |
| 2026-05-03 23:14 | 49.22878 | 2.02363 | 21973 ft | 409 kts | 20° |
| 2026-05-03 23:15 | 49.25529 | 2.04009 | 21975 ft | 409 kts | 20° |
| 2026-05-03 23:15 | 49.28143 | 2.05637 | 21975 ft | 409 kts | 20° |
| 2026-05-03 23:15 | 49.30793 | 2.07290 | 21975 ft | 408 kts | 20° |
| 2026-05-03 23:15 | 49.33430 | 2.08935 | 21972 ft | 407 kts | 20° |
| 2026-05-03 23:16 | 49.36031 | 2.10556 | 21976 ft | 407 kts | 20° |
| 2026-05-03 23:16 | 49.38670 | 2.12186 | 21977 ft | 407 kts | 18° |
| 2026-05-03 23:16 | 49.41368 | 2.13302 | 21981 ft | 403 kts | 6° |
| 2026-05-03 23:16 | 49.44163 | 2.13623 | 21981 ft | 398 kts | 354° |
| 2026-05-03 23:17 | 49.46893 | 2.13159 | 21984 ft | 392 kts | 342° |
| 2026-05-03 23:17 | 49.49454 | 2.11995 | 21984 ft | 386 kts | 333° |
| 2026-05-03 23:17 | 49.51969 | 2.10551 | 22000 ft | 386 kts | 334° |
| 2026-05-03 23:17 | 49.54502 | 2.09094 | 22000 ft | 385 kts | 334° |
| 2026-05-03 23:18 | 49.56989 | 2.07660 | 22003 ft | 385 kts | 334° |
| 2026-05-03 23:18 | 49.59515 | 2.06201 | 21999 ft | 385 kts | 334° |
| 2026-05-03 23:18 | 49.62020 | 2.04752 | 22001 ft | 385 kts | 334° |
| 2026-05-03 23:18 | 49.64500 | 2.03315 | 21999 ft | 384 kts | 334° |
| 2026-05-03 23:19 | 49.67023 | 2.01853 | 21996 ft | 384 kts | 334° |
| 2026-05-03 23:19 | 49.69529 | 2.00400 | 21995 ft | 384 kts | 334° |
| 2026-05-03 23:19 | 49.72004 | 1.98968 | 21993 ft | 384 kts | 334° |
| 2026-05-03 23:19 | 49.74519 | 1.97513 | 22001 ft | 384 kts | 334° |
| 2026-05-03 23:20 | 49.77033 | 1.96056 | 22001 ft | 384 kts | 334° |
| 2026-05-03 23:20 | 49.79510 | 1.94620 | 21999 ft | 383 kts | 334° |
| 2026-05-03 23:20 | 49.81169 | 1.93658 | 21998 ft | 383 kts | 334° |
| 2026-05-03 23:20 | 49.83671 | 1.92203 | 21996 ft | 383 kts | 334° |
| 2026-05-03 23:21 | 49.86983 | 1.90270 | 21991 ft | 383 kts | 334° |
| 2026-05-03 23:21 | 49.88628 | 1.89270 | 21991 ft | 380 kts | 330° |
| 2026-05-03 23:21 | 49.91618 | 1.86522 | 21990 ft | 371 kts | 316° |
| 2026-05-03 23:21 | 49.93633 | 1.84029 | 21989 ft | 370 kts | 315° |
| 2026-05-03 23:22 | 49.96997 | 1.79865 | 22010 ft | 370 kts | 316° |
| 2026-05-03 23:22 | 49.99013 | 1.77379 | 22004 ft | 370 kts | 316° |
| 2026-05-03 23:22 | 50.01015 | 1.74908 | 21999 ft | 370 kts | 316° |
| 2026-05-03 23:23 | 50.03039 | 1.72410 | 21999 ft | 370 kts | 316° |
| 2026-05-03 23:23 | 50.05066 | 1.69905 | 21995 ft | 370 kts | 316° |
| 2026-05-03 23:23 | 50.07148 | 1.67523 | 21991 ft | 373 kts | 324° |
| 2026-05-03 23:23 | 50.09452 | 1.65691 | 21994 ft | 377 kts | 330° |
| 2026-05-03 23:24 | 50.11845 | 1.63975 | 21989 ft | 377 kts | 330° |
| 2026-05-03 23:24 | 50.14225 | 1.62256 | 21990 ft | 377 kts | 330° |
| 2026-05-03 23:24 | 50.16617 | 1.60523 | 21989 ft | 377 kts | 330° |
| 2026-05-03 23:24 | 50.18980 | 1.58805 | 22003 ft | 377 kts | 330° |
| 2026-05-03 23:25 | 50.21364 | 1.57069 | 22002 ft | 377 kts | 330° |
| 2026-05-03 23:25 | 50.23720 | 1.55351 | 21988 ft | 377 kts | 330° |
| 2026-05-03 23:25 | 50.26113 | 1.53605 | 21988 ft | 377 kts | 330° |
| 2026-05-03 23:25 | 50.28491 | 1.51870 | 21997 ft | 377 kts | 330° |
| 2026-05-03 23:26 | 50.30851 | 1.50147 | 21997 ft | 377 kts | 330° |
| 2026-05-03 23:26 | 50.33241 | 1.48401 | 21993 ft | 377 kts | 330° |
| 2026-05-03 23:26 | 50.35591 | 1.46683 | 21989 ft | 377 kts | 330° |
| 2026-05-03 23:26 | 50.37975 | 1.44938 | 21993 ft | 377 kts | 330° |
| 2026-05-03 23:27 | 50.40238 | 1.43279 | 21989 ft | 377 kts | 330° |
| 2026-05-03 23:27 | 50.42595 | 1.41547 | 22000 ft | 377 kts | 331° |
| 2026-05-03 23:27 | 50.44980 | 1.39789 | 21999 ft | 376 kts | 330° |
| 2026-05-03 23:27 | 50.47318 | 1.38043 | 22015 ft | 375 kts | 328° |
| 2026-05-03 23:28 | 50.49341 | 1.36036 | 22009 ft | 371 kts | 318° |
| 2026-05-03 23:28 | 50.50922 | 1.33837 | 22004 ft | 366 kts | 309° |
| 2026-05-03 23:28 | 50.52648 | 1.30902 | 22000 ft | 366 kts | 308° |
| 2026-05-03 23:28 | 50.54378 | 1.27948 | 21992 ft | 366 kts | 308° |
| 2026-05-03 23:29 | 50.56087 | 1.25033 | 21990 ft | 366 kts | 308° |
| 2026-05-03 23:29 | 50.57822 | 1.22085 | 21988 ft | 366 kts | 309° |
| 2026-05-03 23:29 | 50.59599 | 1.19179 | 21984 ft | 367 kts | 310° |
| 2026-05-03 23:29 | 50.61387 | 1.16362 | 21986 ft | 367 kts | 311° |
| 2026-05-03 23:30 | 50.63209 | 1.13536 | 21982 ft | 367 kts | 311° |
| 2026-05-03 23:30 | 50.65017 | 1.10741 | 21997 ft | 367 kts | 311° |
| 2026-05-03 23:30 | 50.66841 | 1.07907 | 21995 ft | 367 kts | 311° |
| 2026-05-03 23:30 | 50.68659 | 1.05056 | 21995 ft | 367 kts | 311° |
| 2026-05-03 23:31 | 50.70451 | 1.02226 | 21992 ft | 367 kts | 310° |
| 2026-05-03 23:31 | 50.72256 | 0.99357 | 21991 ft | 367 kts | 310° |
| 2026-05-03 23:31 | 50.74060 | 0.96481 | 21991 ft | 367 kts | 310° |
| 2026-05-03 23:31 | 50.75840 | 0.93638 | 21982 ft | 367 kts | 310° |
| 2026-05-03 23:32 | 50.77639 | 0.90763 | 21993 ft | 367 kts | 310° |
| 2026-05-03 23:32 | 50.79443 | 0.87880 | 21992 ft | 367 kts | 310° |
| 2026-05-03 23:32 | 50.81229 | 0.85025 | 21984 ft | 371 kts | 310° |
| 2026-05-03 23:32 | 50.83077 | 0.82061 | 21957 ft | 381 kts | 310° |
| 2026-05-03 23:33 | 50.84921 | 0.79105 | 21952 ft | 381 kts | 310° |
| 2026-05-03 23:33 | 50.86760 | 0.76161 | 21903 ft | 366 kts | 310° |
| 2026-05-03 23:33 | 50.88532 | 0.73331 | 21535 ft | 360 kts | 310° |
| 2026-05-03 23:33 | 50.90285 | 0.70522 | 20899 ft | 362 kts | 311° |
| 2026-05-03 23:34 | 50.92053 | 0.67678 | 20389 ft | 361 kts | 311° |
| 2026-05-03 23:34 | 50.93811 | 0.64840 | 19923 ft | 358 kts | 311° |
| 2026-05-03 23:34 | 50.95553 | 0.62023 | 19475 ft | 356 kts | 311° |
| 2026-05-03 23:34 | 50.97262 | 0.59260 | 19041 ft | 353 kts | 311° |
| 2026-05-03 23:35 | 50.98982 | 0.56483 | 18598 ft | 351 kts | 311° |
| 2026-05-03 23:35 | 51.00689 | 0.53724 | 18164 ft | 348 kts | 311° |
| 2026-05-03 23:35 | 51.02368 | 0.51008 | 17975 ft | 336 kts | 311° |
| 2026-05-03 23:35 | 51.03957 | 0.48436 | 17994 ft | 326 kts | 311° |
| 2026-05-03 23:36 | 51.05567 | 0.45818 | 17276 ft | 334 kts | 311° |
| 2026-05-03 23:36 | 51.07197 | 0.43159 | 16595 ft | 340 kts | 311° |
| 2026-05-03 23:36 | 51.08892 | 0.40502 | 16082 ft | 340 kts | 313° |
| 2026-05-03 23:36 | 51.10609 | 0.37896 | 15615 ft | 339 kts | 314° |
| 2026-05-03 23:37 | 51.12303 | 0.35356 | 15172 ft | 337 kts | 314° |
| 2026-05-03 23:37 | 51.14006 | 0.32795 | 14740 ft | 335 kts | 314° |
| 2026-05-03 23:37 | 51.15701 | 0.30231 | 14306 ft | 333 kts | 314° |
| 2026-05-03 23:37 | 51.17354 | 0.27720 | 13898 ft | 332 kts | 314° |
| 2026-05-03 23:38 | 51.19019 | 0.25176 | 13443 ft | 330 kts | 313° |
| 2026-05-03 23:38 | 51.20655 | 0.22666 | 13275 ft | 319 kts | 313° |
| 2026-05-03 23:38 | 51.22242 | 0.20229 | 13050 ft | 312 kts | 313° |
| 2026-05-03 23:38 | 51.23771 | 0.17879 | 12719 ft | 309 kts | 313° |
| 2026-05-03 23:39 | 51.25320 | 0.15494 | 12369 ft | 307 kts | 313° |
| 2026-05-03 23:39 | 51.26860 | 0.13122 | 11999 ft | 305 kts | 313° |
| 2026-05-03 23:39 | 51.28367 | 0.10796 | 11642 ft | 303 kts | 313° |
| 2026-05-03 23:39 | 51.29875 | 0.08463 | 11157 ft | 299 kts | 313° |
| 2026-05-03 23:40 | 51.31378 | 0.06139 | 10367 ft | 301 kts | 313° |
| 2026-05-03 23:40 | 51.32650 | 0.03491 | 9559 ft | 297 kts | 294° |
| 2026-05-03 23:40 | 51.33211 | 0.00377 | 8736 ft | 293 kts | 273° |
| 2026-05-03 23:40 | 51.33332 | -0.02881 | 7926 ft | 292 kts | 271° |
| 2026-05-03 23:41 | 51.33445 | -0.06010 | 7676 ft | 275 kts | 271° |
| 2026-05-03 23:41 | 51.33553 | -0.08959 | 7520 ft | 255 kts | 271° |
| 2026-05-03 23:41 | 51.33654 | -0.11715 | 7369 ft | 238 kts | 271° |
| 2026-05-03 23:41 | 51.33745 | -0.14243 | 7226 ft | 225 kts | 271° |
| 2026-05-03 23:42 | 51.33831 | -0.16713 | 7073 ft | 219 kts | 271° |
| 2026-05-03 23:42 | 51.33914 | -0.19121 | 6928 ft | 217 kts | 271° |
| 2026-05-03 23:42 | 51.34117 | -0.21519 | 6769 ft | 218 kts | 291° |
| 2026-05-03 23:42 | 51.35118 | -0.23273 | 6623 ft | 222 kts | 334° |
| 2026-05-03 23:43 | 51.36642 | -0.23505 | 6472 ft | 224 kts | 18° |
| 2026-05-03 23:43 | 51.37859 | -0.22063 | 6328 ft | 223 kts | 62° |
| 2026-05-03 23:43 | 51.38203 | -0.19698 | 6183 ft | 220 kts | 93° |
| 2026-05-03 23:43 | 51.38171 | -0.17259 | 6027 ft | 222 kts | 94° |
| 2026-05-03 23:44 | 51.38111 | -0.14788 | 5869 ft | 221 kts | 94° |